createdAt,value
2022-08-09T00:00:06.077Z,7.38
2022-08-09T00:02:42.948Z,4.35
2022-08-09T00:06:18.308Z,8.98
2022-08-09T00:08:02.230Z,4.90
2022-08-09T00:10:28.686Z,4.40
2022-08-09T00:12:55.082Z,7.07
2022-08-09T00:15:26.504Z,5.68
2022-08-09T00:18:11.255Z,5.47
2022-08-09T00:20:42.215Z,9.05
2022-08-09T00:23:55.577Z,9.35
2022-08-09T00:26:01.663Z,6.65
2022-08-09T00:28:31.740Z,7.10
2022-08-09T00:31:01.083Z,5.43
2022-08-09T00:33:51.084Z,4.75
2022-08-09T00:36:18.206Z,10.10
2022-08-09T00:38:45.004Z,7.50
2022-08-09T00:41:13.114Z,5.28
2022-08-09T00:44:15.220Z,11.23
2022-08-09T00:46:56.927Z,5.07
2022-08-09T00:49:28.610Z,9.10
2022-08-09T00:51:57.677Z,6.50
2022-08-09T00:54:31.483Z,6.38
2022-08-09T00:57:01.834Z,4.82
2022-08-09T00:59:41.694Z,14.18
2022-08-09T01:02:16.907Z,5.65
2022-08-09T01:05:14.202Z,8.88
2022-08-09T01:08:00.041Z,11.07
2022-08-09T01:10:34.146Z,5.95
2022-08-09T01:13:07.409Z,9.65
2022-08-09T01:15:41.113Z,13.18
2022-08-09T01:18:30.320Z,8.60
2022-08-09T01:21:16.096Z,9.57
2022-08-09T01:24:02.043Z,7.20
2022-08-09T01:26:33.559Z,13.02
2022-08-09T01:29:03.301Z,10.80
2022-08-09T01:32:44.011Z,12.10
2022-08-09T01:34:20.039Z,11.73
2022-08-09T01:36:47.746Z,7.13
2022-08-09T01:39:16.314Z,6.10
2022-08-09T01:41:53.389Z,8.23
2022-08-09T01:44:23.588Z,9.02
2022-08-09T01:46:50.954Z,6.63
2022-08-09T01:49:20.980Z,6.50
2022-08-09T01:51:55.106Z,7.50
2022-08-09T01:54:23.535Z,12.10
2022-08-09T01:56:52.043Z,7.97
2022-08-09T01:59:20.022Z,8.15
2022-08-09T02:01:59.988Z,12.88
2022-08-09T02:04:28.276Z,9.63
2022-08-09T02:07:08.716Z,10.30
2022-08-09T02:09:59.269Z,9.30
2022-08-09T02:12:28.300Z,14.95
2022-08-09T02:14:58.008Z,8.40
2022-08-09T02:18:00.683Z,8.48
2022-08-09T02:20:12.908Z,9.00
2022-08-09T02:22:52.835Z,18.48
2022-08-09T02:25:21.427Z,12.55
2022-08-09T02:28:03.919Z,9.25
2022-08-09T02:30:41.501Z,7.88
2022-08-09T02:33:14.467Z,9.57
2022-08-09T02:35:46.362Z,10.55
2022-08-09T02:38:30.575Z,9.27
2022-08-09T02:41:06.240Z,12.43
2022-08-09T02:43:54.137Z,7.97
2022-08-09T02:46:24.210Z,14.32
2022-08-09T02:48:51.771Z,9.80
2022-08-09T02:51:20.933Z,9.02
2022-08-09T02:53:59.602Z,9.52
2022-08-09T02:56:28.922Z,9.18
2022-08-09T02:58:55.799Z,11.95
2022-08-09T03:01:29.330Z,13.57
2022-08-09T03:04:18.272Z,9.43
2022-08-09T03:06:46.659Z,10.48
2022-08-09T03:09:16.153Z,8.45
2022-08-09T03:12:06.031Z,11.48
2022-08-09T03:14:31.777Z,7.65
2022-08-09T03:16:59.718Z,12.43
2022-08-09T03:19:59.415Z,7.50
2022-08-09T03:22:24.997Z,14.70
2022-08-09T03:25:06.436Z,12.48
2022-08-09T03:27:45.876Z,11.00
2022-08-09T03:30:12.828Z,12.85
2022-08-09T03:32:41.507Z,11.20
2022-08-09T03:35:24.501Z,10.13
2022-08-09T03:37:58.969Z,11.50
2022-08-09T03:40:30.875Z,11.77
2022-08-09T03:42:57.624Z,15.63
2022-08-09T03:46:04.855Z,8.70
2022-08-09T03:48:10.339Z,9.25
2022-08-09T03:50:37.541Z,14.35
2022-08-09T03:53:10.647Z,12.02
2022-08-09T03:55:40.817Z,11.10
2022-08-09T03:58:14.906Z,13.90
2022-08-09T04:00:44.932Z,10.07
2022-08-09T04:03:11.751Z,11.13
2022-08-09T04:05:46.278Z,11.60
2022-08-09T04:08:12.599Z,14.05
2022-08-09T04:10:39.745Z,12.43
2022-08-09T04:13:11.425Z,10.18
2022-08-09T04:16:18.564Z,10.63
2022-08-09T04:18:25.340Z,11.23
2022-08-09T04:20:51.796Z,14.20
2022-08-09T04:23:23.529Z,9.45
2022-08-09T04:25:52.962Z,10.15
2022-08-09T04:28:34.163Z,11.23
2022-08-09T04:31:09.243Z,10.25
2022-08-09T04:33:52.527Z,14.55
2022-08-09T04:36:25.589Z,9.85
2022-08-09T04:38:52.520Z,11.63
2022-08-09T04:41:19.246Z,14.63
2022-08-09T04:44:05.266Z,10.73
2022-08-09T04:46:56.677Z,10.70
2022-08-09T04:49:53.736Z,9.95
2022-08-09T04:52:09.698Z,10.23
2022-08-09T04:54:36.348Z,12.35
2022-08-09T04:57:03.835Z,14.50
2022-08-09T04:59:30.574Z,17.48
2022-08-09T05:01:56.961Z,11.52
2022-08-09T05:04:23.353Z,13.05
2022-08-09T05:06:57.681Z,13.82
2022-08-09T05:09:24.920Z,11.27
2022-08-09T05:11:58.974Z,11.80
2022-08-09T05:14:26.857Z,10.38
2022-08-09T05:16:58.928Z,15.88
2022-08-09T05:19:38.412Z,17.80
2022-08-09T05:22:36.231Z,14.77
2022-08-09T05:25:00.955Z,10.63
2022-08-09T05:27:29.064Z,10.32
2022-08-09T05:29:58.945Z,11.75
2022-08-09T05:32:25.669Z,17.38
2022-08-09T05:34:52.060Z,11.50
2022-08-09T05:37:18.594Z,16.17
2022-08-09T05:39:45.040Z,11.95
2022-08-09T05:42:17.552Z,11.80
2022-08-09T05:44:50.799Z,16.27
2022-08-09T05:47:17.941Z,10.50
2022-08-09T05:50:35.014Z,15.80
2022-08-09T05:52:30.695Z,16.65
2022-08-09T05:54:58.028Z,11.18
2022-08-09T05:57:55.954Z,10.77
2022-08-09T06:00:16.259Z,9.32
2022-08-09T06:02:46.629Z,9.27
2022-08-09T06:05:14.464Z,10.80
2022-08-09T06:07:42.561Z,13.23
2022-08-09T06:10:09.383Z,12.20
2022-08-09T06:12:43.021Z,11.93
2022-08-09T06:15:10.184Z,8.70
2022-08-09T06:17:39.181Z,9.98
2022-08-09T06:20:07.077Z,8.55
2022-08-09T06:22:34.444Z,9.95
2022-08-09T06:25:01.044Z,10.13
2022-08-09T06:27:42.481Z,12.15
2022-08-09T06:30:10.306Z,9.02
2022-08-09T06:32:59.630Z,9.95
2022-08-09T06:35:22.960Z,8.20
2022-08-09T06:38:09.278Z,10.82
2022-08-09T06:40:37.554Z,12.73
2022-08-09T06:43:04.345Z,9.27
2022-08-09T06:46:06.380Z,6.25
2022-08-09T06:48:30.601Z,12.15
2022-08-09T06:50:58.069Z,8.30
2022-08-09T06:53:24.781Z,6.50
2022-08-09T06:55:51.117Z,7.95
2022-08-09T06:58:40.860Z,9.25
2022-08-09T07:01:03.784Z,6.68
2022-08-09T07:03:30.853Z,8.48
2022-08-09T07:06:03.920Z,6.28
2022-08-09T07:08:31.703Z,5.88
2022-08-09T07:10:58.087Z,5.88
2022-08-09T07:13:28.231Z,4.13
2022-08-09T07:16:41.058Z,8.05
2022-08-09T07:18:42.093Z,4.70
2022-08-09T07:21:09.401Z,5.78
2022-08-09T07:23:56.375Z,3.75
2022-08-09T07:26:23.383Z,5.95
2022-08-09T07:29:08.304Z,4.80
2022-08-09T07:31:38.518Z,4.82
2022-08-09T07:34:20.832Z,3.38
2022-08-09T07:36:48.355Z,4.43
2022-08-09T07:39:20.442Z,3.45
2022-08-09T07:42:02.318Z,3.53
2022-08-09T07:44:33.071Z,8.25
2022-08-09T07:47:16.382Z,3.63
2022-08-09T07:50:05.119Z,6.10
2022-08-09T07:52:29.385Z,2.70
2022-08-09T07:54:56.608Z,2.58
2022-08-09T07:57:23.993Z,5.90
2022-08-09T08:00:03.723Z,3.72
2022-08-09T08:02:42.582Z,3.00
2022-08-09T08:05:17.704Z,4.77
2022-08-09T08:08:43.177Z,4.78
2022-08-09T08:10:34.414Z,3.05
2022-08-09T08:13:01.086Z,3.55
2022-08-09T08:15:30.180Z,2.67
2022-08-09T08:18:01.994Z,3.40
2022-08-09T08:20:32.664Z,2.03
2022-08-09T08:23:03.637Z,4.00
2022-08-09T08:25:46.597Z,3.90
2022-08-09T08:28:15.444Z,4.90
2022-08-09T08:30:43.064Z,2.78
2022-08-09T08:33:11.812Z,5.20
2022-08-09T08:35:58.239Z,2.13
2022-08-09T08:38:25.252Z,1.45
2022-08-09T08:40:55.565Z,3.38
2022-08-09T08:43:23.589Z,1.92
2022-08-09T08:45:53.229Z,4.15
2022-08-09T08:48:29.247Z,3.22
2022-08-09T08:53:23.862Z,2.08
2022-08-09T08:55:58.966Z,8.00
2022-08-09T08:58:28.036Z,1.65
2022-08-09T09:00:57.374Z,2.28
2022-08-09T09:03:37.126Z,2.17
2022-08-09T09:06:05.693Z,2.05
2022-08-09T09:08:37.865Z,2.83
2022-08-09T09:11:08.007Z,1.13
2022-08-09T09:13:54.761Z,4.05
2022-08-09T09:16:30.774Z,1.55
2022-08-09T09:21:56.103Z,2.72
2022-08-09T09:24:29.015Z,3.03
2022-08-09T09:26:56.935Z,3.83
2022-08-09T09:32:36.076Z,4.40
2022-08-09T09:35:09.875Z,3.25
2022-08-09T09:37:37.822Z,2.08
2022-08-09T09:40:07.553Z,4.20
2022-08-09T09:42:35.483Z,1.08
2022-08-09T09:45:05.727Z,4.10
2022-08-09T09:47:36.884Z,3.42
2022-08-09T09:50:14.815Z,2.13
2022-08-09T09:52:53.921Z,1.83
2022-08-09T09:55:28.889Z,1.25
2022-08-09T09:58:18.650Z,1.02
2022-08-09T10:00:54.628Z,2.75
2022-08-09T10:03:39.680Z,2.85
2022-08-09T10:06:06.405Z,1.45
2022-08-09T10:08:32.870Z,1.55
2022-08-09T10:12:00.778Z,1.90
2022-08-09T10:14:30.482Z,8.68
2022-08-09T10:17:11.373Z,3.03
2022-08-09T10:19:45.716Z,1.52
2022-08-09T10:22:12.515Z,0.93
2022-08-09T10:24:39.571Z,2.00
2022-08-09T10:27:16.954Z,1.88
2022-08-09T10:30:48.092Z,2.92
2022-08-09T10:32:42.777Z,2.10
2022-08-09T10:35:09.888Z,2.35
2022-08-09T10:37:38.210Z,1.67
2022-08-09T10:40:08.605Z,1.10
2022-08-09T10:42:38.618Z,1.02
2022-08-09T10:45:10.592Z,0.43
2022-08-09T10:48:19.241Z,2.53
2022-08-09T10:51:09.583Z,1.98
2022-08-09T10:53:58.192Z,1.13
2022-08-09T10:56:29.763Z,1.65
2022-08-09T10:58:57.284Z,1.83
2022-08-09T11:03:15.879Z,0.75
2022-08-09T11:04:31.660Z,1.13
2022-08-09T11:07:00.181Z,1.83
2022-08-09T11:09:48.979Z,0.60
2022-08-09T11:12:17.114Z,3.13
2022-08-09T11:14:48.691Z,0.55
2022-08-09T11:17:14.995Z,0.98
2022-08-09T11:20:19.901Z,4.47
2022-08-09T11:22:56.655Z,1.05
2022-08-09T11:25:36.154Z,0.70
2022-08-09T11:28:30.605Z,0.88
2022-08-09T11:31:01.783Z,2.22
2022-08-09T11:33:48.396Z,0.75
2022-08-09T11:36:30.298Z,2.63
2022-08-09T11:39:02.701Z,3.70
2022-08-09T11:41:38.596Z,4.40
2022-08-09T11:44:07.485Z,1.38
2022-08-09T11:46:50.674Z,0.73
2022-08-09T11:49:17.248Z,2.60
2022-08-09T11:52:59.262Z,3.53
2022-08-09T11:55:07.876Z,7.53
2022-08-09T11:57:47.992Z,1.23
2022-08-09T12:00:27.669Z,1.23
2022-08-09T12:02:55.726Z,3.80
2022-08-09T12:05:22.899Z,0.68
2022-08-09T12:07:50.170Z,0.95
2022-08-09T12:10:39.857Z,0.93
2022-08-09T12:14:07.570Z,0.60
2022-08-09T12:15:58.378Z,0.85
2022-08-09T12:18:26.172Z,2.75
2022-08-09T12:21:00.331Z,0.73
2022-08-09T12:23:57.915Z,1.50
2022-08-09T12:26:19.698Z,1.27
2022-08-09T12:28:59.289Z,2.72
2022-08-09T12:31:59.227Z,1.17
2022-08-09T12:34:35.092Z,1.27
2022-08-09T12:37:21.863Z,0.90
2022-08-09T12:39:58.840Z,1.00
2022-08-09T12:42:26.172Z,0.68
2022-08-09T12:44:54.554Z,0.98
2022-08-09T12:47:22.891Z,0.60
2022-08-09T12:50:09.845Z,0.60
2022-08-09T12:52:42.648Z,5.88
2022-08-09T12:56:12.305Z,2.40
2022-08-09T12:58:24.251Z,1.08
2022-08-09T13:00:53.955Z,0.75
2022-08-09T13:03:28.536Z,1.05
2022-08-09T13:06:23.874Z,1.30
2022-08-09T13:09:01.074Z,0.60
2022-08-09T13:11:31.597Z,0.55
2022-08-09T13:14:43.663Z,2.80
2022-08-09T13:16:47.761Z,3.63
2022-08-09T13:20:06.498Z,0.90
2022-08-09T13:22:35.429Z,3.60
2022-08-09T13:25:11.867Z,1.77
2022-08-09T13:27:48.723Z,3.97
2022-08-09T13:32:09.882Z,3.08
2022-08-09T13:33:11.556Z,0.98
2022-08-09T13:36:37.826Z,0.98
2022-08-09T13:38:54.168Z,6.50
2022-08-09T13:41:58.177Z,1.38
2022-08-09T13:44:06.784Z,3.92
2022-08-09T13:47:16.012Z,0.82
2022-08-09T13:49:20.695Z,0.65
2022-08-09T13:51:58.819Z,3.55
2022-08-09T13:54:27.700Z,1.65
2022-08-09T13:56:56.777Z,0.60
2022-08-09T13:59:25.241Z,1.67
2022-08-09T14:02:01.330Z,1.17
2022-08-09T14:04:29.103Z,1.77
2022-08-09T14:07:03.627Z,4.22
2022-08-09T14:09:30.200Z,1.15
2022-08-09T14:12:02.067Z,1.75
2022-08-09T14:14:34.946Z,1.38
2022-08-09T14:17:03.703Z,2.35
2022-08-09T14:19:33.462Z,1.33
2022-08-09T14:22:00.239Z,3.95
2022-08-09T14:24:32.309Z,2.53
2022-08-09T14:27:00.157Z,4.13
2022-08-09T14:30:34.748Z,5.15
2022-08-09T14:32:16.321Z,4.25
2022-08-09T14:34:46.166Z,0.80
2022-08-09T14:37:12.486Z,3.13
2022-08-09T14:39:46.684Z,0.65
2022-08-09T14:42:29.060Z,2.80
2022-08-09T14:44:59.861Z,1.15
2022-08-09T14:47:46.705Z,1.13
2022-08-09T14:50:16.221Z,1.70
2022-08-09T14:52:43.871Z,0.70
2022-08-09T14:55:19.969Z,4.45
2022-08-09T14:57:47.228Z,1.35
2022-08-09T15:00:15.258Z,6.38
2022-08-09T15:02:41.606Z,0.50
2022-08-09T15:05:08.211Z,1.85
2022-08-09T15:07:35.346Z,3.22
2022-08-09T15:10:07.430Z,5.57
2022-08-09T15:12:37.826Z,0.60
2022-08-09T15:15:04.491Z,1.63
2022-08-09T15:17:41.781Z,0.80
2022-08-09T15:20:11.807Z,1.67
2022-08-09T15:22:47.056Z,3.58
2022-08-09T15:25:14.339Z,2.05
2022-08-09T15:27:47.871Z,0.50
2022-08-09T15:30:57.630Z,5.00
2022-08-09T15:33:15.187Z,1.38
2022-08-09T15:36:02.198Z,2.85
2022-08-09T15:38:33.776Z,1.58
2022-08-09T15:41:00.172Z,0.60
2022-08-09T15:43:37.911Z,0.80
2022-08-09T15:46:28.623Z,1.45
2022-08-09T15:49:20.477Z,3.85
2022-08-09T15:52:01.803Z,6.10
2022-08-09T15:54:33.500Z,4.32
2022-08-09T15:57:09.556Z,1.60
2022-08-09T15:59:37.205Z,2.28
2022-08-09T16:02:04.046Z,4.95
2022-08-09T16:04:32.015Z,3.30
2022-08-09T16:07:01.837Z,7.03
2022-08-09T16:09:32.628Z,1.85
2022-08-09T16:12:15.684Z,1.30
2022-08-09T16:14:42.431Z,2.58
2022-08-09T16:17:09.150Z,1.77
2022-08-09T16:19:48.947Z,1.10
2022-08-09T16:22:16.101Z,3.08
2022-08-09T16:24:42.813Z,2.20
2022-08-09T16:27:16.860Z,5.30
2022-08-09T16:29:50.573Z,2.28
2022-08-09T16:32:35.003Z,9.23
2022-08-09T16:35:02.453Z,0.70
2022-08-09T16:37:53.178Z,1.83
2022-08-09T16:40:20.392Z,0.50
2022-08-09T16:42:56.634Z,0.73
2022-08-09T16:45:23.037Z,1.40
2022-08-09T16:48:39.892Z,2.28
2022-08-09T16:50:38.181Z,0.70
2022-08-09T16:53:05.576Z,4.35
2022-08-09T16:55:58.270Z,1.20
2022-08-09T16:58:19.449Z,1.20
2022-08-09T17:00:48.196Z,0.60
2022-08-09T17:03:21.472Z,0.65
2022-08-09T17:06:08.685Z,1.42
2022-08-09T17:08:44.643Z,1.27
2022-08-09T17:11:24.478Z,0.82
2022-08-09T17:14:01.690Z,0.90
2022-08-09T17:16:28.767Z,2.40
2022-08-09T17:18:55.186Z,1.10
2022-08-09T17:21:23.808Z,1.38
2022-08-09T17:24:20.792Z,0.60
2022-08-09T17:26:38.348Z,1.30
2022-08-09T17:29:06.028Z,0.70
2022-08-09T17:31:49.080Z,0.40
2022-08-09T17:35:01.059Z,2.38
2022-08-09T17:37:05.233Z,1.15
2022-08-09T17:39:53.222Z,1.00
2022-08-09T17:42:41.317Z,2.20
2022-08-09T17:45:06.360Z,1.00
2022-08-09T17:47:49.875Z,2.45
2022-08-09T17:50:24.955Z,0.88
2022-08-09T17:53:04.684Z,1.75
2022-08-09T17:55:49.550Z,0.50
2022-08-09T17:58:18.853Z,2.35
2022-08-09T18:00:48.019Z,1.42
2022-08-09T18:03:15.075Z,3.70
2022-08-09T18:05:53.099Z,5.22
2022-08-09T18:08:21.988Z,3.67
2022-08-09T18:10:58.818Z,1.20
2022-08-09T18:13:39.712Z,4.35
2022-08-09T18:16:14.632Z,2.03
2022-08-09T18:18:49.123Z,1.52
2022-08-09T18:21:19.608Z,1.23
2022-08-09T18:24:11.440Z,3.13
2022-08-09T18:26:46.986Z,1.20
2022-08-09T18:30:39.882Z,0.75
2022-08-09T18:32:05.486Z,1.27
2022-08-09T18:34:35.553Z,2.58
2022-08-09T18:37:10.398Z,0.68
2022-08-09T18:39:52.550Z,4.90
2022-08-09T18:42:18.914Z,0.73
2022-08-09T18:44:47.707Z,0.60
2022-08-09T18:47:16.007Z,0.80
2022-08-09T18:49:46.492Z,4.90
2022-08-09T18:52:15.827Z,4.25
2022-08-09T18:54:52.661Z,2.83
2022-08-09T18:57:22.185Z,1.00
2022-08-09T18:59:57.764Z,0.70
2022-08-09T19:02:31.802Z,0.85
2022-08-09T19:05:03.969Z,1.55
2022-08-09T19:08:04.458Z,2.17
2022-08-09T19:10:37.181Z,2.35
2022-08-09T19:15:50.806Z,0.88
2022-08-09T19:18:32.974Z,0.63
2022-08-09T19:21:02.529Z,3.20
2022-08-09T19:24:39.833Z,1.38
2022-08-09T19:26:15.498Z,0.68
2022-08-09T19:28:48.862Z,5.00
2022-08-09T19:31:16.733Z,3.47
2022-08-09T19:33:46.102Z,1.45
2022-08-09T19:36:13.389Z,3.60
2022-08-09T19:38:40.222Z,4.43
2022-08-09T19:41:08.959Z,1.05
2022-08-09T19:44:01.304Z,1.95
2022-08-09T19:46:35.923Z,2.03
2022-08-09T19:50:06.570Z,2.97
2022-08-09T19:51:57.054Z,7.40
2022-08-09T19:54:26.848Z,3.95
2022-08-09T19:56:53.986Z,6.45
2022-08-09T19:59:59.023Z,3.25
2022-08-09T20:04:06.904Z,4.10
2022-08-09T20:04:58.581Z,1.50
2022-08-09T20:07:26.124Z,2.35
2022-08-09T20:10:17.790Z,1.38
2022-08-09T20:12:49.056Z,3.40
2022-08-09T20:16:32.858Z,1.50
2022-08-09T20:18:04.947Z,1.75
2022-08-09T20:20:35.098Z,9.13
2022-08-09T20:25:51.553Z,1.52
2022-08-09T20:28:24.479Z,4.00
2022-08-09T20:31:04.919Z,6.22
2022-08-09T20:33:39.260Z,4.00
2022-08-09T20:36:08.218Z,5.85
2022-08-09T20:39:06.948Z,1.45
2022-08-09T20:41:21.128Z,1.17
2022-08-09T20:44:01.175Z,1.30
2022-08-09T20:46:41.635Z,8.40
2022-08-09T20:49:11.318Z,1.55
2022-08-09T20:51:41.669Z,9.82
2022-08-09T20:54:12.661Z,8.88
2022-08-09T20:56:47.176Z,1.58
2022-08-09T20:59:17.514Z,9.23
2022-08-09T21:01:50.606Z,5.97
2022-08-09T21:05:52.968Z,2.15
2022-08-09T21:07:11.360Z,2.78
2022-08-09T21:09:55.768Z,1.23
2022-08-09T21:15:13.929Z,1.13
2022-08-09T21:18:22.312Z,1.95
2022-08-09T21:20:30.181Z,3.58
2022-08-09T21:22:57.193Z,1.98
2022-08-09T21:25:44.503Z,3.60
2022-08-09T21:28:35.115Z,1.23
2022-08-09T21:31:16.597Z,1.25
2022-08-09T21:36:11.635Z,5.65
2022-08-09T21:38:39.190Z,5.55
2022-08-09T21:41:08.439Z,2.13
2022-08-09T21:43:56.115Z,5.88
2022-08-09T21:46:23.860Z,1.30
2022-08-09T21:48:51.799Z,2.33
2022-08-09T21:51:23.866Z,7.13
2022-08-09T21:53:55.348Z,2.90
2022-08-09T21:56:43.140Z,2.72
2022-08-09T21:59:09.728Z,0.98
2022-08-09T22:01:58.665Z,3.90
2022-08-09T22:04:22.588Z,1.75
2022-08-09T22:07:08.916Z,5.25
2022-08-09T22:09:38.558Z,3.50
2022-08-09T22:12:18.348Z,2.00
2022-08-09T22:14:45.815Z,3.20
2022-08-09T22:17:12.178Z,3.15
2022-08-09T22:19:58.516Z,2.00
2022-08-09T22:22:25.087Z,3.60
2022-08-09T22:24:53.515Z,5.13
2022-08-09T22:27:38.619Z,1.40
2022-08-09T22:30:07.259Z,1.58
2022-08-09T22:32:33.916Z,2.20
2022-08-09T22:35:06.334Z,1.70
2022-08-09T22:37:46.738Z,1.60
2022-08-09T22:40:20.233Z,1.20
2022-08-09T22:42:46.802Z,1.05
2022-08-09T22:48:12.887Z,4.95
2022-08-09T22:48:35.201Z,1.52
2022-08-09T22:50:52.803Z,0.95
2022-08-09T22:53:19.700Z,2.47
2022-08-09T22:56:29.567Z,0.80
2022-08-09T22:58:33.619Z,1.67
2022-08-09T23:01:02.324Z,1.10
2022-08-09T23:04:02.873Z,1.10
2022-08-09T23:06:15.924Z,3.70
2022-08-09T23:08:59.119Z,1.00
2022-08-09T23:11:25.499Z,0.90
2022-08-09T23:13:53.049Z,2.65
2022-08-09T23:16:22.533Z,1.00
2022-08-09T23:18:48.935Z,2.30
2022-08-09T23:21:25.992Z,1.40
2022-08-09T23:24:06.801Z,1.33
2022-08-09T23:26:33.879Z,2.60
2022-08-09T23:29:00.223Z,1.15
2022-08-09T23:31:26.581Z,1.98
2022-08-09T23:33:53.069Z,2.83
2022-08-09T23:36:19.436Z,2.28
2022-08-09T23:38:48.906Z,2.50
2022-08-09T23:41:28.864Z,1.60
2022-08-09T23:43:56.594Z,5.10
2022-08-09T23:46:22.926Z,3.67
2022-08-09T23:48:49.284Z,2.75
2022-08-09T23:51:15.650Z,2.33
2022-08-09T23:53:42.187Z,1.45
2022-08-09T23:56:08.535Z,1.52
2022-08-09T23:58:35.431Z,2.47
